Time;durP1;ratioP1;P1;durP2;ratioP2;P2;SDS_P1;SDS_P2;PMS_P1;PMS_P2;Temp;Humidity;BMP_temperature;BMP_pressure;BME280_temperature;BME280_humidity;BME280_pressure;Samples;Min_cycle;Max_cycle;Signal;HPM_P1;HPM_P2
2021/08/11 00:01:33;;;;;;;1.20;1.10;;;15.30;98.20;;;;;;5031455;28;20112;-61
2021/08/11 00:03:58;;;;;;;1.75;1.50;;;15.20;98.30;;;;;;5031716;28;20017;-62
2021/08/11 00:06:24;;;;;;;8.95;1.58;;;15.30;98.30;;;;;;5031569;28;20454;-61
2021/08/11 00:08:49;;;;;;;3.47;2.30;;;15.30;98.40;;;;;;5031796;28;20452;-62
2021/08/11 00:11:15;;;;;;;2.60;2.25;;;15.20;98.30;;;;;;5031351;28;20067;-62
2021/08/11 00:13:41;;;;;;;2.78;2.40;;;15.20;98.30;;;;;;5031645;28;20488;-62
2021/08/11 00:16:07;;;;;;;3.20;2.60;;;15.20;98.40;;;;;;5031353;28;20033;-62
2021/08/11 00:18:32;;;;;;;2.40;2.05;;;15.20;98.40;;;;;;5031489;28;20093;-62
2021/08/11 00:20:58;;;;;;;1.95;1.55;;;15.20;98.50;;;;;;5031332;28;20083;-62
2021/08/11 00:23:25;;;;;;;3.05;2.40;;;15.20;98.50;;;;;;5033011;28;20064;-62
2021/08/11 00:25:54;;;;;;;6.30;2.13;;;15.10;98.60;;;;;;5035792;28;20014;-62
2021/08/11 00:28:26;;;;;;;3.73;1.27;;;15.20;98.60;;;;;;5035439;28;20017;-62
2021/08/11 00:30:52;;;;;;;1.60;1.33;;;15.10;98.60;;;;;;5035131;28;20088;-61
2021/08/11 00:33:19;;;;;;;1.88;1.70;;;15.00;98.70;;;;;;5035306;28;20500;-62
2021/08/11 00:35:44;;;;;;;4.72;1.30;;;15.00;98.80;;;;;;5034996;28;20045;-62
2021/08/11 00:38:10;;;;;;;1.88;1.67;;;14.90;98.80;;;;;;5033854;28;20061;-62
2021/08/11 00:40:36;;;;;;;4.38;3.38;;;14.90;98.90;;;;;;5034871;28;20041;-61
2021/08/11 00:43:09;;;;;;;4.43;3.42;;;14.90;98.90;;;;;;5035119;28;20045;-62
2021/08/11 00:45:36;;;;;;;5.05;4.55;;;15.00;99.00;;;;;;5034879;28;20507;-62
2021/08/11 00:48:02;;;;;;;5.18;4.43;;;15.00;99.00;;;;;;5034808;28;20033;-61
2021/08/11 00:50:27;;;;;;;6.03;4.70;;;15.00;98.90;;;;;;5035266;28;20423;-62
2021/08/11 00:52:53;;;;;;;5.53;4.90;;;15.00;98.90;;;;;;5034859;28;20021;-61
2021/08/11 00:55:20;;;;;;;6.72;5.20;;;15.00;98.90;;;;;;5032326;28;20436;-62
2021/08/11 00:57:46;;;;;;;6.68;5.70;;;15.10;98.90;;;;;;5034661;28;20021;-62
2021/08/11 01:00:13;;;;;;;5.47;4.80;;;15.10;98.90;;;;;;5034697;28;20021;-62
2021/08/11 01:02:40;;;;;;;5.07;4.45;;;15.10;98.80;;;;;;5034668;28;20025;-62
2021/08/11 01:05:06;;;;;;;4.88;4.38;;;15.00;98.90;;;;;;5033342;28;20047;-62
2021/08/11 01:07:34;;;;;;;4.35;3.95;;;15.00;98.90;;;;;;5034628;28;20025;-62
2021/08/11 01:10:01;;;;;;;5.15;4.30;;;15.00;99.00;;;;;;5048052;28;20021;-62
2021/08/11 01:12:27;;;;;;;4.38;3.97;;;15.00;99.00;;;;;;5034450;28;20021;-62
2021/08/11 01:14:54;;;;;;;5.70;4.30;;;14.90;99.00;;;;;;5033622;28;20068;-61
2021/08/11 01:17:24;;;;;;;18.15;3.60;;;14.90;99.10;;;;;;5030890;28;20063;-62
2021/08/11 01:19:49;;;;;;;8.35;2.15;;;14.80;99.10;;;;;;5033431;28;20028;-62
2021/08/11 01:22:23;;;;;;;2.95;1.98;;;14.80;99.10;;;;;;5033124;28;20033;-62
2021/08/11 01:24:57;;;;;;;7.97;1.50;;;14.70;99.20;;;;;;5033135;28;20040;-62
2021/08/11 01:27:57;;;;;;;13.88;1.70;;;14.60;99.20;;;;;;5034132;28;20164;-62
2021/08/11 01:30:29;;;;;;;2.00;1.40;;;14.50;99.30;;;;;;5034370;28;20028;-62
2021/08/11 01:33:36;;;;;;;2.58;2.30;;;14.40;99.50;;;;;;5033505;28;20025;-62
2021/08/11 01:36:24;;;;;;;2.53;2.08;;;14.40;99.60;;;;;;5032657;28;20049;-61
2021/08/11 01:39:18;;;;;;;4.07;3.20;;;14.40;99.60;;;;;;5029163;28;20502;-61
2021/08/11 01:41:50;;;;;;;7.45;3.35;;;14.50;99.60;;;;;;5032014;28;20029;-61
2021/08/11 01:44:21;;;;;;;6.00;4.18;;;14.50;99.70;;;;;;5033697;28;20029;-61
2021/08/11 01:46:49;;;;;;;42.05;4.72;;;14.50;99.60;;;;;;5033828;28;20056;-61
2021/08/11 01:49:16;;;;;;;20.73;3.35;;;14.50;99.70;;;;;;5033987;28;20421;-61
2021/08/11 01:51:45;;;;;;;16.20;2.45;;;14.50;99.70;;;;;;5033787;28;20013;-61
2021/08/11 01:54:11;;;;;;;1.85;1.30;;;14.40;99.70;;;;;;5033881;28;20061;-61
2021/08/11 01:56:45;;;;;;;4.20;1.48;;;14.40;99.80;;;;;;5033288;28;20037;-61
2021/08/11 01:59:11;;;;;;;1.58;1.20;;;14.30;99.80;;;;;;5033870;28;20381;-61
2021/08/11 02:01:39;;;;;;;1.92;1.60;;;14.30;99.80;;;;;;5033253;28;20029;-61
2021/08/11 02:04:07;;;;;;;8.52;2.20;;;14.30;99.80;;;;;;5033461;28;20029;-61
2021/08/11 02:06:35;;;;;;;3.00;2.60;;;14.30;99.90;;;;;;5033575;28;20021;-61
2021/08/11 02:09:01;;;;;;;3.42;2.88;;;14.30;99.90;;;;;;5031017;28;20056;-62
2021/08/11 02:11:27;;;;;;;4.53;2.30;;;14.30;99.90;;;;;;5015577;28;20057;-62
2021/08/11 02:13:53;;;;;;;2.50;2.20;;;14.30;99.90;;;;;;5033556;28;20029;-62
2021/08/11 02:16:19;;;;;;;4.30;3.70;;;14.30;99.90;;;;;;5033180;28;20026;-62
2021/08/11 02:18:45;;;;;;;3.78;3.42;;;14.30;99.90;;;;;;5033259;28;20018;-62
2021/08/11 02:21:11;;;;;;;4.13;3.72;;;14.20;99.90;;;;;;5033367;28;20503;-62
2021/08/11 02:23:36;;;;;;;3.95;3.55;;;14.30;99.90;;;;;;5033009;28;20539;-62
2021/08/11 02:26:17;;;;;;;5.95;3.53;;;14.20;99.90;;;;;;5033264;28;20469;-62
2021/08/11 02:29:05;;;;;;;11.15;2.80;;;14.30;99.90;;;;;;5033101;28;20035;-61
2021/08/11 02:31:36;;;;;;;3.53;2.17;;;14.20;99.90;;;;;;5032120;28;20078;-62
2021/08/11 02:34:15;;;;;;;2.90;2.40;;;14.10;99.90;;;;;;5031540;28;20033;-62
2021/08/11 02:36:52;;;;;;;4.50;3.30;;;14.10;99.90;;;;;;5045315;28;20028;-61
2021/08/11 02:39:23;;;;;;;6.47;3.55;;;14.10;99.90;;;;;;5032422;28;20041;-62
2021/08/11 02:41:57;;;;;;;4.80;3.75;;;14.10;99.90;;;;;;5033038;28;20029;-61
2021/08/11 02:44:27;;;;;;;13.30;4.75;;;14.10;99.90;;;;;;5032763;28;20092;-62
2021/08/11 02:46:54;;;;;;;23.95;5.35;;;14.10;99.90;;;;;;5031780;28;20029;-62
2021/08/11 02:49:28;;;;;;;5.68;4.85;;;14.10;99.90;;;;;;5032598;28;20104;-62
2021/08/11 02:51:57;;;;;;;15.00;4.60;;;14.20;99.90;;;;;;5032546;28;20416;-62
2021/08/11 02:54:24;;;;;;;17.95;4.97;;;14.10;99.90;;;;;;5032667;28;20026;-62
2021/08/11 02:56:50;;;;;;;14.93;3.92;;;14.10;99.90;;;;;;5032759;28;20061;-62
2021/08/11 02:59:16;;;;;;;13.88;2.83;;;14.10;99.90;;;;;;5032388;28;20064;-62
2021/08/11 03:01:43;;;;;;;8.43;2.70;;;14.10;99.90;;;;;;5032483;28;20107;-62
2021/08/11 03:04:08;;;;;;;3.33;2.00;;;14.00;99.90;;;;;;5032214;28;20029;-62
2021/08/11 03:06:35;;;;;;;8.43;2.13;;;13.90;99.90;;;;;;5032478;28;20026;-62
2021/08/11 03:09:02;;;;;;;5.78;2.17;;;13.70;99.90;;;;;;5029809;28;20053;-61
2021/08/11 03:11:29;;;;;;;7.80;2.53;;;13.70;99.90;;;;;;5032305;28;20020;-61
2021/08/11 03:13:55;;;;;;;5.35;2.50;;;13.70;99.90;;;;;;5032274;28;20160;-61
2021/08/11 03:16:21;;;;;;;5.70;2.20;;;13.70;99.90;;;;;;5030996;28;20029;-62
2021/08/11 03:18:49;;;;;;;3.40;2.05;;;13.70;99.90;;;;;;5032141;28;20021;-62
2021/08/11 03:21:14;;;;;;;4.88;2.72;;;13.70;99.90;;;;;;5032250;28;20553;-62
2021/08/11 03:23:40;;;;;;;5.32;2.58;;;13.80;99.90;;;;;;5030644;28;20116;-62
2021/08/11 03:26:06;;;;;;;9.35;4.88;;;13.80;99.90;;;;;;5032194;28;20036;-62
2021/08/11 03:28:31;;;;;;;6.25;5.38;;;13.70;99.90;;;;;;5032087;28;20401;-61
2021/08/11 03:30:57;;;;;;;8.20;7.40;;;13.60;99.90;;;;;;5031738;28;20481;-62
2021/08/11 03:33:22;;;;;;;8.27;7.47;;;13.50;99.90;;;;;;5032013;28;20079;-61
2021/08/11 03:35:48;;;;;;;9.25;6.22;;;13.40;99.90;;;;;;5032099;28;20022;-61
2021/08/11 03:38:13;;;;;;;8.73;5.70;;;13.40;99.90;;;;;;5030772;28;20481;-62
2021/08/11 03:40:39;;;;;;;6.10;5.50;;;13.40;99.90;;;;;;5031495;28;20045;-61
2021/08/11 03:43:04;;;;;;;6.82;5.25;;;13.40;99.90;;;;;;5031774;28;20025;-62
2021/08/11 03:45:30;;;;;;;6.88;4.15;;;13.40;99.90;;;;;;5031966;28;20053;-62
2021/08/11 03:47:55;;;;;;;4.60;4.18;;;13.40;99.90;;;;;;5031801;28;20032;-62
2021/08/11 03:50:24;;;;;;;5.30;4.40;;;13.50;99.90;;;;;;5031837;28;20500;-61
2021/08/11 03:52:50;;;;;;;6.32;5.03;;;13.50;99.90;;;;;;5031508;28;20030;-61
2021/08/11 03:55:16;;;;;;;5.03;3.90;;;13.50;99.90;;;;;;5031533;28;20040;-62
2021/08/11 03:57:41;;;;;;;4.85;4.35;;;13.40;99.90;;;;;;5031218;28;20029;-62
2021/08/11 04:00:08;;;;;;;6.30;5.10;;;13.40;99.90;;;;;;5031741;28;20059;-61
2021/08/11 04:02:33;;;;;;;5.68;5.18;;;13.40;99.90;;;;;;5030418;28;20071;-62
2021/08/11 04:04:59;;;;;;;4.93;4.43;;;13.30;99.90;;;;;;5031203;28;20025;-62
2021/08/11 04:07:24;;;;;;;4.80;4.32;;;13.40;99.90;;;;;;5031734;28;20104;-62
2021/08/11 04:09:50;;;;;;;6.32;3.83;;;13.40;99.90;;;;;;5030136;28;20481;-62
2021/08/11 04:12:15;;;;;;;10.05;5.20;;;13.40;99.90;;;;;;5031576;28;20034;-61
2021/08/11 04:14:41;;;;;;;10.13;5.30;;;13.40;99.90;;;;;;5031610;28;20029;-62
2021/08/11 04:17:08;;;;;;;7.32;4.43;;;13.40;99.90;;;;;;5031630;28;20030;-61
2021/08/11 04:19:34;;;;;;;12.90;3.80;;;13.30;99.90;;;;;;5013985;28;20022;-62
2021/08/11 04:22:00;;;;;;;8.45;3.47;;;13.30;99.90;;;;;;5031309;28;20018;-62
2021/08/11 04:24:26;;;;;;;19.05;3.30;;;13.40;99.90;;;;;;5031325;28;20537;-62
2021/08/11 04:26:52;;;;;;;14.43;3.05;;;13.40;99.90;;;;;;5030199;28;20014;-62
2021/08/11 04:29:17;;;;;;;6.90;2.42;;;13.40;99.90;;;;;;5031324;28;20021;-64
2021/08/11 04:31:43;;;;;;;7.18;2.20;;;13.40;99.90;;;;;;5031346;28;20500;-62
2021/08/11 04:34:08;;;;;;;10.43;3.10;;;13.40;99.90;;;;;;5031348;28;20075;-61
2021/08/11 04:36:34;;;;;;;9.32;3.40;;;13.40;99.90;;;;;;5031476;28;20025;-62
2021/08/11 04:39:00;;;;;;;9.32;2.67;;;13.30;99.90;;;;;;5030901;28;20033;-62
2021/08/11 04:41:58;;;;;;;15.18;3.50;;;13.40;99.90;;;;;;5031289;28;20115;-62
2021/08/11 04:44:24;;;;;;;11.40;3.07;;;13.30;99.90;;;;;;5044215;28;20466;-61
2021/08/11 04:46:50;;;;;;;10.65;3.63;;;13.20;99.90;;;;;;5031455;28;20088;-62
2021/08/11 04:49:15;;;;;;;5.22;2.92;;;13.30;99.90;;;;;;5031188;28;20990;-61
2021/08/11 04:51:41;;;;;;;4.35;2.92;;;13.30;99.90;;;;;;5030754;28;20077;-62
2021/08/11 04:54:06;;;;;;;6.32;2.53;;;13.30;99.90;;;;;;5031251;28;20026;-62
2021/08/11 04:56:32;;;;;;;3.22;2.47;;;13.40;99.90;;;;;;5031251;28;20026;-62
2021/08/11 04:58:57;;;;;;;4.40;2.15;;;13.50;99.90;;;;;;5030992;28;20551;-61
2021/08/11 05:01:23;;;;;;;5.05;2.65;;;13.50;99.90;;;;;;5031136;28;20036;-62
2021/08/11 05:03:48;;;;;;;3.67;2.42;;;13.50;99.90;;;;;;5031194;28;20104;-62
2021/08/11 05:06:15;;;;;;;4.55;3.08;;;13.60;99.90;;;;;;5030766;28;20022;-62
2021/08/11 05:08:40;;;;;;;3.40;3.10;;;13.60;99.90;;;;;;5031490;28;20022;-62
2021/08/11 05:11:06;;;;;;;3.40;3.10;;;13.70;99.90;;;;;;5035149;28;20394;-62
2021/08/11 05:13:31;;;;;;;4.95;3.75;;;13.60;99.90;;;;;;5035492;28;20087;-62
2021/08/11 05:15:57;;;;;;;3.90;3.60;;;13.60;99.90;;;;;;5035431;28;20025;-62
2021/08/11 05:18:23;;;;;;;3.78;3.35;;;13.60;99.90;;;;;;5034102;28;20493;-62
2021/08/11 05:20:49;;;;;;;3.63;3.33;;;13.60;99.90;;;;;;5035144;28;20029;-62
2021/08/11 05:23:15;;;;;;;4.20;3.80;;;13.70;99.90;;;;;;5035059;28;20095;-62
2021/08/11 05:25:43;;;;;;;3.63;3.33;;;13.70;99.90;;;;;;5035281;28;20052;-61
2021/08/11 05:28:09;;;;;;;3.75;3.42;;;13.70;99.90;;;;;;5035025;28;20543;-62
2021/08/11 05:30:36;;;;;;;3.45;3.15;;;13.70;99.90;;;;;;5035085;28;20029;-62
2021/08/11 05:33:02;;;;;;;4.10;3.65;;;13.70;99.90;;;;;;5035102;28;20083;-62
2021/08/11 05:35:27;;;;;;;4.60;4.20;;;13.80;99.90;;;;;;5034990;28;20436;-62
2021/08/11 05:37:53;;;;;;;6.13;5.53;;;13.90;99.90;;;;;;5034951;28;20105;-62
2021/08/11 05:40:19;;;;;;;8.30;7.50;;;13.80;99.90;;;;;;5034717;28;20445;-62
2021/08/11 05:42:45;;;;;;;8.50;6.93;;;13.90;99.90;;;;;;5034941;28;20028;-62
2021/08/11 05:45:11;;;;;;;6.30;5.70;;;13.90;99.90;;;;;;5034812;28;20033;-61
2021/08/11 05:47:37;;;;;;;6.38;5.70;;;14.00;99.90;;;;;;5033590;28;20017;-62
2021/08/11 05:50:04;;;;;;;5.32;4.82;;;14.00;99.90;;;;;;5034605;28;20026;-62
2021/08/11 05:52:29;;;;;;;6.47;5.82;;;14.10;99.90;;;;;;5034459;28;20021;-62
2021/08/11 05:54:55;;;;;;;5.97;5.38;;;14.10;99.90;;;;;;5034274;28;20049;-62
2021/08/11 05:57:21;;;;;;;7.60;5.60;;;14.20;99.90;;;;;;5034197;28;20021;-61
2021/08/11 05:59:47;;;;;;;11.43;10.02;;;14.20;99.90;;;;;;5034703;28;20112;-62
2021/08/11 06:02:13;;;;;;;11.23;10.02;;;14.30;99.90;;;;;;5034367;28;20040;-61
2021/08/11 06:04:39;;;;;;;12.50;10.75;;;14.30;99.90;;;;;;5034316;28;20025;-62
2021/08/11 06:07:05;;;;;;;12.00;10.48;;;14.40;99.90;;;;;;5034315;28;20030;-62
2021/08/11 06:09:30;;;;;;;11.95;10.60;;;14.50;99.90;;;;;;5034546;28;20424;-62
2021/08/11 06:12:00;;;;;;;14.18;12.35;;;14.50;99.90;;;;;;5034002;28;20026;-62
2021/08/11 06:14:26;;;;;;;13.18;11.77;;;14.60;99.90;;;;;;5034559;28;20029;-61
2021/08/11 06:16:51;;;;;;;16.20;13.25;;;14.70;99.90;;;;;;5034220;28;20026;-62
2021/08/11 06:19:17;;;;;;;13.00;11.52;;;14.80;99.90;;;;;;5034485;28;20508;-62
2021/08/11 06:22:13;;;;;;;14.88;11.75;;;14.80;99.90;;;;;;5033810;28;20026;-61
2021/08/11 06:24:39;;;;;;;13.07;11.20;;;14.90;99.90;;;;;;5034247;28;20038;-61
2021/08/11 06:27:04;;;;;;;13.93;11.93;;;14.90;99.90;;;;;;5034017;28;20029;-61
2021/08/11 06:29:30;;;;;;;15.48;12.23;;;15.00;99.90;;;;;;5033933;28;20017;-62
2021/08/11 06:32:06;;;;;;;12.18;10.88;;;15.10;99.90;;;;;;5034192;28;20083;-61
2021/08/11 06:34:31;;;;;;;16.98;13.80;;;15.20;99.90;;;;;;5032039;28;20044;-61
2021/08/11 06:36:57;;;;;;;16.33;13.80;;;15.20;99.90;;;;;;5032733;28;20537;-62
2021/08/11 06:39:25;;;;;;;16.77;13.88;;;15.30;99.90;;;;;;5032353;28;20042;-61
2021/08/11 06:41:50;;;;;;;15.38;13.73;;;15.30;99.90;;;;;;5032978;28;20021;-61
2021/08/11 06:44:16;;;;;;;15.63;13.52;;;15.30;99.90;;;;;;5033129;28;20040;-61
2021/08/11 06:46:41;;;;;;;15.45;13.15;;;15.40;99.90;;;;;;5033396;28;20033;-61
2021/08/11 06:49:07;;;;;;;17.10;14.52;;;15.40;99.90;;;;;;5033173;28;20108;-61
2021/08/11 06:51:32;;;;;;;16.85;14.50;;;15.50;99.90;;;;;;5032608;28;20017;-61
2021/08/11 06:53:58;;;;;;;16.13;13.18;;;15.50;99.90;;;;;;5030249;28;20501;-61
2021/08/11 06:56:23;;;;;;;15.38;13.38;;;15.60;99.90;;;;;;5032074;28;20032;-61
2021/08/11 06:58:55;;;;;;;17.00;15.18;;;15.70;99.90;;;;;;5033205;28;20021;-62
2021/08/11 07:01:20;;;;;;;15.15;12.98;;;15.80;99.90;;;;;;5031461;28;20029;-61
2021/08/11 07:04:04;;;;;;;16.40;14.60;;;15.80;99.90;;;;;;5029984;28;20029;-62
2021/08/11 07:06:30;;;;;;;21.25;16.50;;;15.90;99.90;;;;;;5031503;28;20026;-61
2021/08/11 07:08:55;;;;;;;19.40;14.93;;;16.00;99.90;;;;;;5033543;28;20024;-61
2021/08/11 07:11:21;;;;;;;15.48;13.80;;;16.00;99.90;;;;;;5032821;28;20044;-62
2021/08/11 07:13:47;;;;;;;18.98;16.20;;;16.10;99.90;;;;;;5033086;28;20033;-61
2021/08/11 07:16:13;;;;;;;18.98;14.80;;;16.20;99.90;;;;;;5033119;28;20100;-61
2021/08/11 07:18:38;;;;;;;20.73;15.98;;;16.30;99.90;;;;;;5033109;28;20507;-61
2021/08/11 07:21:04;;;;;;;16.73;13.55;;;16.30;99.90;;;;;;5033024;28;20389;-61
2021/08/11 07:23:29;;;;;;;19.42;15.48;;;16.40;99.90;;;;;;5032494;28;20056;-62
2021/08/11 07:25:57;;;;;;;18.35;15.23;;;16.60;99.90;;;;;;5033011;28;20584;-62
2021/08/11 07:28:23;;;;;;;18.30;15.27;;;16.70;99.90;;;;;;5031753;28;20026;-61
2021/08/11 07:30:48;;;;;;;19.00;16.58;;;16.70;99.90;;;;;;5032795;28;20381;-61
2021/08/11 07:33:29;;;;;;;;;;;;;;;;;;;;;
2021/08/11 07:35:55;;;;;;;23.20;17.40;;;16.90;99.90;;;;;;5032660;28;20350;-61
2021/08/11 07:38:20;;;;;;;22.00;18.20;;;17.00;99.90;;;;;;5032334;28;20116;-62
2021/08/11 07:40:46;;;;;;;17.98;15.75;;;17.20;99.90;;;;;;5032396;28;20568;-62
2021/08/11 07:43:12;;;;;;;19.00;15.20;;;17.20;99.90;;;;;;5032711;28;20547;-62
2021/08/11 07:45:37;;;;;;;17.90;13.55;;;17.40;99.90;;;;;;5032710;28;20112;-62
2021/08/11 07:48:04;;;;;;;14.40;11.40;;;17.50;99.90;;;;;;5032605;28;20461;-62
2021/08/11 07:50:33;;;;;;;20.52;14.52;;;17.60;99.90;;;;;;5032539;28;20030;-62
2021/08/11 07:52:59;;;;;;;18.73;14.68;;;17.70;99.90;;;;;;5031334;28;20033;-62
2021/08/11 07:55:25;;;;;;;20.83;14.65;;;17.80;99.90;;;;;;5032429;28;20029;-62
2021/08/11 07:57:51;;;;;;;18.15;14.32;;;17.80;99.90;;;;;;5032460;28;20026;-62
2021/08/11 08:00:20;;;;;;;20.38;15.82;;;17.90;99.90;;;;;;5032493;28;20048;-62
2021/08/11 08:02:46;;;;;;;19.45;14.73;;;18.00;99.90;;;;;;5031437;28;20358;-62
2021/08/11 08:05:12;;;;;;;14.63;13.00;;;18.00;99.90;;;;;;5031792;28;20037;-62
2021/08/11 08:07:38;;;;;;;21.38;15.95;;;18.10;99.90;;;;;;5031978;28;20021;-62
2021/08/11 08:10:04;;;;;;;17.65;13.23;;;18.20;99.90;;;;;;5032182;28;20021;-62
2021/08/11 08:12:30;;;;;;;19.55;13.15;;;18.20;99.90;;;;;;5032414;28;20017;-62
2021/08/11 08:14:56;;;;;;;13.65;11.88;;;18.30;99.90;;;;;;5032536;28;20025;-63
2021/08/11 08:17:21;;;;;;;17.67;12.75;;;18.40;99.90;;;;;;5032188;28;20033;-62
2021/08/11 08:19:47;;;;;;;20.48;15.48;;;18.50;99.90;;;;;;5032307;28;20550;-62
2021/08/11 08:22:16;;;;;;;19.95;15.43;;;18.60;99.90;;;;;;5030832;28;20051;-62
2021/08/11 08:24:42;;;;;;;15.25;12.77;;;18.70;99.90;;;;;;5030509;28;20061;-62
2021/08/11 08:27:08;;;;;;;24.77;19.30;;;18.80;99.90;;;;;;5031740;28;20040;-62
2021/08/11 08:29:33;;;;;;;25.30;18.77;;;18.90;99.90;;;;;;5032238;28;20022;-62
2021/08/11 08:31:59;;;;;;;26.05;19.30;;;19.00;99.80;;;;;;5031516;28;20084;-62
2021/08/11 08:34:24;;;;;;;23.48;19.95;;;19.20;99.70;;;;;;5031659;28;20075;-62
2021/08/11 08:36:50;;;;;;;19.98;17.02;;;19.40;99.20;;;;;;5031218;28;20558;-62
2021/08/11 08:39:15;;;;;;;24.02;21.27;;;19.50;99.10;;;;;;5031589;28;20049;-62
2021/08/11 08:41:44;;;;;;;23.98;21.08;;;19.60;98.50;;;;;;5020321;28;20026;-62
2021/08/11 08:44:12;;;;;;;23.35;18.63;;;19.60;98.20;;;;;;5014124;28;20044;-62
2021/08/11 08:46:38;;;;;;;24.17;18.77;;;19.70;98.40;;;;;;5023674;28;20036;-62
2021/08/11 08:49:06;;;;;;;21.38;17.00;;;19.80;98.30;;;;;;5025617;28;20026;-62
2021/08/11 08:51:38;;;;;;;27.02;20.25;;;19.90;98.20;;;;;;5031257;28;20483;-62
2021/08/11 08:54:05;;;;;;;25.00;20.80;;;20.00;98.00;;;;;;5034301;28;20029;-62
2021/08/11 08:56:31;;;;;;;22.05;17.67;;;20.00;97.50;;;;;;5035644;28;20022;-62
2021/08/11 08:58:57;;;;;;;26.17;19.08;;;20.00;97.30;;;;;;5035657;28;20088;-62
2021/08/11 09:01:22;;;;;;;21.65;17.67;;;20.00;97.10;;;;;;5035533;28;20025;-62
2021/08/11 09:03:48;;;;;;;26.15;18.58;;;20.00;97.10;;;;;;5035306;28;20029;-62
2021/08/11 09:06:13;;;;;;;22.85;18.00;;;20.00;96.90;;;;;;5034953;28;20079;-62
2021/08/11 09:08:55;;;;;;;19.85;16.10;;;20.00;97.00;;;;;;5035507;28;20516;-62
2021/08/11 09:11:20;;;;;;;19.90;14.85;;;20.10;96.90;;;;;;5034991;28;20032;-62
2021/08/11 09:13:46;;;;;;;20.45;16.77;;;20.20;97.00;;;;;;5034828;28;20045;-62
2021/08/11 09:16:17;;;;;;;17.15;14.40;;;20.30;96.70;;;;;;5033962;28;20037;-62
2021/08/11 09:19:10;;;;;;;20.15;16.25;;;20.40;96.50;;;;;;5035061;28;20112;-63
2021/08/11 09:21:36;;;;;;;18.95;14.25;;;20.50;96.50;;;;;;5035399;28;20083;-62
2021/08/11 09:24:25;;;;;;;19.33;14.85;;;20.60;96.60;;;;;;5034729;28;20041;-62
2021/08/11 09:26:53;;;;;;;20.02;15.63;;;20.70;96.10;;;;;;5033172;28;20037;-62
2021/08/11 09:29:19;;;;;;;15.98;13.15;;;20.70;95.80;;;;;;5035490;28;20107;-62
2021/08/11 09:32:07;;;;;;;16.98;13.68;;;20.80;95.90;;;;;;5034757;28;20497;-62
2021/08/11 09:34:42;;;;;;;19.33;16.63;;;20.90;95.00;;;;;;5034457;28;20029;-62
2021/08/11 09:37:09;;;;;;;24.60;18.30;;;21.10;94.70;;;;;;5034447;28;20029;-62
2021/08/11 09:39:38;;;;;;;20.27;15.82;;;21.10;94.80;;;;;;5034362;28;20140;-62
2021/08/11 09:42:04;;;;;;;15.63;13.30;;;21.00;94.80;;;;;;5031805;28;20048;-62
2021/08/11 09:44:30;;;;;;;16.80;13.02;;;21.00;94.90;;;;;;5034438;28;20493;-62
2021/08/11 09:47:11;;;;;;;12.80;10.45;;;21.10;94.40;;;;;;5034494;28;20117;-62
2021/08/11 09:49:36;;;;;;;11.98;10.23;;;21.20;94.30;;;;;;5034303;28;20021;-62
2021/08/11 09:52:03;;;;;;;12.18;10.68;;;21.20;94.20;;;;;;5032604;28;20033;-62
2021/08/11 09:54:30;;;;;;;11.13;9.30;;;21.30;93.70;;;;;;5033893;28;20025;-62
2021/08/11 09:56:56;;;;;;;12.52;9.73;;;21.40;93.70;;;;;;5033778;28;20017;-62
2021/08/11 09:59:22;;;;;;;9.50;7.82;;;21.50;93.50;;;;;;5033851;28;20021;-62
2021/08/11 10:01:48;;;;;;;8.93;7.80;;;21.60;93.50;;;;;;5033973;28;20370;-62
2021/08/11 10:04:40;;;;;;;10.35;9.30;;;21.80;93.30;;;;;;5033685;28;20073;-62
2021/08/11 10:07:09;;;;;;;8.77;7.88;;;21.90;92.90;;;;;;5033657;28;20026;-62
2021/08/11 10:09:34;;;;;;;8.30;6.63;;;21.90;92.60;;;;;;5034233;28;20088;-62
2021/08/11 10:12:00;;;;;;;7.63;6.88;;;21.80;92.40;;;;;;5033706;28;20064;-62
2021/08/11 10:14:31;;;;;;;6.43;5.68;;;21.80;92.30;;;;;;5032461;28;20053;-62
2021/08/11 10:16:59;;;;;;;8.85;7.95;;;21.90;92.30;;;;;;5033805;28;20029;-62
2021/08/11 10:19:28;;;;;;;14.33;12.80;;;22.00;92.20;;;;;;5033734;28;20113;-62
2021/08/11 10:22:06;;;;;;;12.63;11.27;;;21.90;91.40;;;;;;5033462;28;20021;-63
2021/08/11 10:24:35;;;;;;;11.68;10.57;;;21.90;91.10;;;;;;5034125;28;20424;-62
2021/08/11 10:27:05;;;;;;;12.00;10.18;;;21.80;90.80;;;;;;5033611;28;20404;-62
2021/08/11 10:29:32;;;;;;;12.52;11.23;;;21.70;90.80;;;;;;5033674;28;20127;-62
2021/08/11 10:31:58;;;;;;;14.48;12.68;;;21.90;90.90;;;;;;5033108;28;20499;-62
2021/08/11 10:34:24;;;;;;;12.48;11.10;;;22.00;90.10;;;;;;5033729;28;20063;-62
2021/08/11 10:36:50;;;;;;;14.00;11.93;;;22.10;90.30;;;;;;5033438;28;20027;-62
2021/08/11 10:39:17;;;;;;;11.73;10.57;;;22.20;90.30;;;;;;5033214;28;20041;-62
2021/08/11 10:41:44;;;;;;;8.70;7.60;;;22.30;90.00;;;;;;5033023;28;20075;-62
2021/08/11 10:44:36;;;;;;;8.27;6.75;;;22.20;87.90;;;;;;5033000;28;20040;-62
2021/08/11 10:47:03;;;;;;;7.00;5.65;;;22.30;86.30;;;;;;5032800;28;20547;-62
2021/08/11 10:49:29;;;;;;;7.00;5.55;;;22.30;85.90;;;;;;5033181;28;20032;-62
2021/08/11 10:52:14;;;;;;;7.43;6.05;;;22.40;86.30;;;;;;5031623;28;20378;-63
2021/08/11 10:54:53;;;;;;;6.43;5.72;;;22.50;86.40;;;;;;5032942;28;20358;-62
2021/08/11 10:57:37;;;;;;;6.50;5.80;;;22.60;86.00;;;;;;5033032;28;20385;-62
2021/08/11 11:00:21;;;;;;;6.32;4.85;;;22.70;84.20;;;;;;5033107;28;20039;-62
2021/08/11 11:02:56;;;;;;;6.68;5.07;;;22.80;84.30;;;;;;5032615;28;20131;-62
2021/08/11 11:05:25;;;;;;;6.43;4.65;;;22.90;81.30;;;;;;5032243;28;20100;-62
2021/08/11 11:08:14;;;;;;;7.07;5.68;;;22.90;78.70;;;;;;5031770;28;20017;-62
2021/08/11 11:10:45;;;;;;;7.07;5.50;;;23.10;78.60;;;;;;5030174;28;20519;-62
2021/08/11 11:13:22;;;;;;;5.55;3.97;;;23.00;78.70;;;;;;5032984;28;20083;-62
2021/08/11 11:15:48;;;;;;;4.20;3.25;;;23.20;79.00;;;;;;5033078;28;20032;-62
2021/08/11 11:21:10;;;;;;;4.35;2.72;;;23.60;78.70;;;;;;5032828;28;20026;-62
2021/08/11 11:23:41;;;;;;;3.78;2.75;;;23.90;79.00;;;;;;5033106;28;20075;-62
2021/08/11 11:27:00;;;;;;;3.22;1.85;;;24.30;78.60;;;;;;5031796;28;20367;-62
2021/08/11 11:29:47;;;;;;;4.03;2.92;;;24.70;78.20;;;;;;5030685;28;20026;-62
2021/08/11 11:32:41;;;;;;;4.38;3.40;;;24.70;74.30;;;;;;5031061;28;20036;-62
2021/08/11 11:35:24;;;;;;;5.43;3.72;;;24.50;72.00;;;;;;5030227;28;20029;-62
2021/08/11 11:38:05;;;;;;;6.65;3.60;;;24.40;71.80;;;;;;5030762;28;20071;-62
2021/08/11 11:40:32;;;;;;;4.50;3.35;;;24.20;71.30;;;;;;5030583;28;20041;-62
2021/08/11 11:43:28;;;;;;;5.35;3.80;;;24.20;71.30;;;;;;5031819;28;20186;-62
2021/08/11 11:45:55;;;;;;;5.45;3.60;;;24.40;71.90;;;;;;5028846;28;20060;-63
2021/08/11 11:48:21;;;;;;;3.47;2.40;;;24.50;69.80;;;;;;5031213;28;20104;-62
2021/08/11 11:50:50;;;;;;;3.92;2.50;;;24.70;69.70;;;;;;5031555;28;20017;-62
2021/08/11 11:53:30;;;;;;;3.30;2.75;;;25.00;69.60;;;;;;5030968;28;20465;-62
2021/08/11 11:55:57;;;;;;;3.47;2.63;;;25.20;69.30;;;;;;5031110;28;20052;-62
2021/08/11 11:58:25;;;;;;;4.40;2.67;;;25.20;69.50;;;;;;5032250;28;20075;-62
2021/08/11 12:01:04;;;;;;;3.10;2.42;;;25.40;68.90;;;;;;5031826;28;20018;-63
2021/08/11 12:03:33;;;;;;;4.85;2.78;;;25.60;68.20;;;;;;5031793;28;20017;-63
2021/08/11 12:06:27;;;;;;;;;;;;;;;;;;;;;
2021/08/11 12:08:56;;;;;;;3.70;2.75;;;25.40;64.40;;;;;;5032107;28;20021;-63
2021/08/11 12:11:56;;;;;;;4.32;2.38;;;25.40;64.40;;;;;;5032086;28;20137;-63
2021/08/11 12:14:23;;;;;;;3.28;2.30;;;25.50;65.40;;;;;;5031975;28;20385;-63
2021/08/11 12:16:50;;;;;;;2.53;2.33;;;25.80;66.40;;;;;;5032136;28;20025;-62
2021/08/11 12:19:16;;;;;;;3.28;2.45;;;26.10;65.70;;;;;;5034794;28;20401;-62
2021/08/11 12:21:44;;;;;;;2.90;2.42;;;26.20;61.40;;;;;;5034970;28;20049;-62
2021/08/11 12:24:09;;;;;;;3.15;2.03;;;25.90;60.10;;;;;;5036337;28;20029;-63
2021/08/11 12:26:37;;;;;;;2.53;2.15;;;26.00;62.10;;;;;;5035177;28;20043;-62
2021/08/11 12:29:14;;;;;;;2.38;1.92;;;26.20;62.20;;;;;;5036058;28;20021;-62
2021/08/11 12:31:41;;;;;;;2.90;1.80;;;26.30;62.30;;;;;;5034768;28;20537;-63
2021/08/11 12:34:09;;;;;;;3.78;2.22;;;26.50;62.70;;;;;;5035945;28;20021;-63
2021/08/11 12:36:43;;;;;;;2.70;1.95;;;26.80;63.00;;;;;;5034968;28;20025;-63
2021/08/11 12:39:14;;;;;;;2.78;1.90;;;27.10;62.50;;;;;;5034481;28;20129;-62
2021/08/11 12:41:42;;;;;;;2.17;1.58;;;27.20;63.00;;;;;;5035873;28;20469;-62
2021/08/11 12:44:12;;;;;;;2.08;1.55;;;27.30;62.90;;;;;;5036280;28;20045;-62
2021/08/11 12:46:50;;;;;;;2.17;1.90;;;27.50;63.20;;;;;;5035770;28;20014;-62
2021/08/11 12:49:17;;;;;;;3.03;2.10;;;27.80;62.90;;;;;;5035712;28;20021;-63
2021/08/11 12:51:43;;;;;;;3.10;2.22;;;27.70;59.80;;;;;;5034376;28;20500;-63
2021/08/11 12:54:09;;;;;;;3.90;2.40;;;27.70;59.30;;;;;;5035641;28;20037;-62